Ballygowan, United Kingdom
Current Conditions -  °F | °C
As of 6:50 AM on Friday 28 Nov 2014 (Local Time) from EGAC Reporting Station
Broken Clouds Broken Clouds  
Wind Chill: 50°   Ceiling: 2800
Heat Index: 50°   Visibility: 6mi
Dew Point: 45°   Wind: 12mph
Humidity: 82%   Direction: 100°E
Pressure: 29.62"   Gusts: NA
Location:  54.5°N, 5.79°W
Report Text: EGAC 280650Z 10010KT 9999 FEW017 SCT023 BKN028 10/07 Q1003
Loading
Personal Weather Stations






























Interactive Weather Map New forecast layout! Learn more

10-Day Weather Forecast

Advertisements
Track Severe Weather on mobile